sensor_id;sensor_type;location;lat;lon;timestamp;pressure;altitude;pressure_sealevel;temperature;humidity
57290;BME280;43523;53.022;-1.178;2023-03-13T00:00:20;98287.46;;;7.61;100.00
57290;BME280;43523;53.022;-1.178;2023-03-13T00:01:24;98274.87;;;7.50;100.00
57290;BME280;43523;53.022;-1.178;2023-03-13T00:02:27;98272.89;;;7.71;100.00
57290;BME280;43523;53.022;-1.178;2023-03-13T00:03:30;98269.93;;;7.98;100.00
57290;BME280;43523;53.022;-1.178;2023-03-13T00:04:32;98267.23;;;7.89;100.00
57290;BME280;43523;53.022;-1.178;2023-03-13T00:05:35;98254.18;;;7.94;100.00
57290;BME280;43523;53.022;-1.178;2023-03-13T00:06:39;98257.44;;;7.83;100.00
57290;BME280;43523;53.022;-1.178;2023-03-13T00:07:42;98244.08;;;7.80;100.00
57290;BME280;43523;53.022;-1.178;2023-03-13T00:08:44;98247.83;;;7.81;100.00
57290;BME280;43523;53.022;-1.178;2023-03-13T00:09:47;98238.38;;;7.77;100.00
57290;BME280;43523;53.022;-1.178;2023-03-13T00:10:50;98238.56;;;7.85;100.00
57290;BME280;43523;53.022;-1.178;2023-03-13T00:11:53;98263.09;;;8.07;100.00
57290;BME280;43523;53.022;-1.178;2023-03-13T00:12:55;98250.55;;;8.16;100.00
57290;BME280;43523;53.022;-1.178;2023-03-13T00:13:59;98250.55;;;7.95;100.00
57290;BME280;43523;53.022;-1.178;2023-03-13T00:15:02;98255.61;;;7.91;100.00
57290;BME280;43523;53.022;-1.178;2023-03-13T00:16:06;98258.85;;;7.89;100.00
57290;BME280;43523;53.022;-1.178;2023-03-13T00:17:08;98255.51;;;7.65;100.00
57290;BME280;43523;53.022;-1.178;2023-03-13T00:18:11;98250.88;;;7.80;100.00
57290;BME280;43523;53.022;-1.178;2023-03-13T00:19:14;98252.73;;;7.96;100.00
57290;BME280;43523;53.022;-1.178;2023-03-13T00:20:17;98255.05;;;7.93;100.00
57290;BME280;43523;53.022;-1.178;2023-03-13T00:21:21;98274.28;;;7.95;100.00
57290;BME280;43523;53.022;-1.178;2023-03-13T00:22:23;98255.16;;;8.00;100.00
57290;BME280;43523;53.022;-1.178;2023-03-13T00:23:26;98251.82;;;8.08;100.00
57290;BME280;43523;53.022;-1.178;2023-03-13T00:24:28;98257.30;;;7.97;100.00
57290;BME280;43523;53.022;-1.178;2023-03-13T00:25:31;98246.37;;;7.90;100.00
57290;BME280;43523;53.022;-1.178;2023-03-13T00:26:33;98250.56;;;7.66;100.00
57290;BME280;43523;53.022;-1.178;2023-03-13T00:27:36;98250.01;;;7.97;100.00
57290;BME280;43523;53.022;-1.178;2023-03-13T00:28:40;98252.99;;;8.27;100.00
57290;BME280;43523;53.022;-1.178;2023-03-13T00:29:42;98256.88;;;7.87;100.00
57290;BME280;43523;53.022;-1.178;2023-03-13T00:30:44;98256.95;;;7.76;100.00
57290;BME280;43523;53.022;-1.178;2023-03-13T00:31:47;98246.33;;;7.83;100.00
57290;BME280;43523;53.022;-1.178;2023-03-13T00:32:49;98246.59;;;8.26;100.00
57290;BME280;43523;53.022;-1.178;2023-03-13T00:33:54;98256.83;;;8.15;100.00
57290;BME280;43523;53.022;-1.178;2023-03-13T00:34:58;98243.77;;;8.28;100.00
57290;BME280;43523;53.022;-1.178;2023-03-13T00:36:02;98241.12;;;8.28;100.00
57290;BME280;43523;53.022;-1.178;2023-03-13T00:37:05;98234.92;;;8.02;100.00
57290;BME280;43523;53.022;-1.178;2023-03-13T00:38:07;98232.85;;;7.97;100.00
57290;BME280;43523;53.022;-1.178;2023-03-13T00:39:10;98234.65;;;8.14;100.00
57290;BME280;43523;53.022;-1.178;2023-03-13T00:40:13;98221.45;;;8.39;100.00
57290;BME280;43523;53.022;-1.178;2023-03-13T00:41:17;98214.93;;;8.38;100.00
57290;BME280;43523;53.022;-1.178;2023-03-13T00:42:19;98219.55;;;8.08;100.00
57290;BME280;43523;53.022;-1.178;2023-03-13T00:43:23;98219.68;;;8.48;100.00
57290;BME280;43523;53.022;-1.178;2023-03-13T00:44:25;98227.03;;;8.23;100.00
57290;BME280;43523;53.022;-1.178;2023-03-13T00:45:28;98202.09;;;8.28;100.00
57290;BME280;43523;53.022;-1.178;2023-03-13T00:46:30;98213.43;;;8.27;100.00
57290;BME280;43523;53.022;-1.178;2023-03-13T00:47:33;98201.72;;;8.32;100.00
57290;BME280;43523;53.022;-1.178;2023-03-13T00:48:35;98194.70;;;8.29;100.00
57290;BME280;43523;53.022;-1.178;2023-03-13T00:49:38;98188.01;;;8.29;100.00
57290;BME280;43523;53.022;-1.178;2023-03-13T00:50:41;98198.49;;;8.30;100.00
57290;BME280;43523;53.022;-1.178;2023-03-13T00:51:43;98195.95;;;8.13;100.00
57290;BME280;43523;53.022;-1.178;2023-03-13T00:52:45;98172.81;;;8.27;100.00
57290;BME280;43523;53.022;-1.178;2023-03-13T00:53:48;98183.47;;;8.43;100.00
57290;BME280;43523;53.022;-1.178;2023-03-13T00:54:50;98191.88;;;7.99;100.00
57290;BME280;43523;53.022;-1.178;2023-03-13T00:55:54;98186.07;;;8.03;100.00
57290;BME280;43523;53.022;-1.178;2023-03-13T00:56:57;98178.31;;;8.00;100.00
57290;BME280;43523;53.022;-1.178;2023-03-13T00:57:59;98179.64;;;8.36;100.00
57290;BME280;43523;53.022;-1.178;2023-03-13T00:59:02;98179.80;;;8.26;100.00
57290;BME280;43523;53.022;-1.178;2023-03-13T01:00:05;98179.31;;;8.31;100.00
57290;BME280;43523;53.022;-1.178;2023-03-13T01:01:09;98174.50;;;8.52;100.00
57290;BME280;43523;53.022;-1.178;2023-03-13T01:02:12;98181.81;;;8.63;100.00
57290;BME280;43523;53.022;-1.178;2023-03-13T01:03:15;98178.94;;;8.24;100.00
57290;BME280;43523;53.022;-1.178;2023-03-13T01:04:17;98183.93;;;8.19;100.00
57290;BME280;43523;53.022;-1.178;2023-03-13T01:05:20;98185.55;;;8.43;100.00
57290;BME280;43523;53.022;-1.178;2023-03-13T01:06:24;98191.82;;;8.49;100.00
57290;BME280;43523;53.022;-1.178;2023-03-13T01:07:28;98183.14;;;8.24;100.00
57290;BME280;43523;53.022;-1.178;2023-03-13T01:08:31;98180.69;;;8.41;100.00
57290;BME280;43523;53.022;-1.178;2023-03-13T01:09:33;98176.69;;;8.21;100.00
57290;BME280;43523;53.022;-1.178;2023-03-13T01:10:35;98187.38;;;8.50;100.00
57290;BME280;43523;53.022;-1.178;2023-03-13T01:11:40;98195.80;;;8.47;100.00
57290;BME280;43523;53.022;-1.178;2023-03-13T01:12:43;98184.43;;;8.48;100.00
57290;BME280;43523;53.022;-1.178;2023-03-13T01:13:45;98186.86;;;8.28;100.00
57290;BME280;43523;53.022;-1.178;2023-03-13T01:14:49;98184.78;;;8.14;100.00
57290;BME280;43523;53.022;-1.178;2023-03-13T01:15:51;98181.67;;;7.73;100.00
57290;BME280;43523;53.022;-1.178;2023-03-13T01:16:54;98187.50;;;8.31;100.00
57290;BME280;43523;53.022;-1.178;2023-03-13T01:17:56;98190.03;;;8.32;100.00
57290;BME280;43523;53.022;-1.178;2023-03-13T01:19:01;98195.34;;;8.08;100.00
57290;BME280;43523;53.022;-1.178;2023-03-13T01:20:07;98183.89;;;7.82;100.00
57290;BME280;43523;53.022;-1.178;2023-03-13T01:21:10;98189.85;;;8.12;100.00
57290;BME280;43523;53.022;-1.178;2023-03-13T01:22:12;98182.46;;;8.27;100.00
57290;BME280;43523;53.022;-1.178;2023-03-13T01:23:14;98186.45;;;8.13;100.00
57290;BME280;43523;53.022;-1.178;2023-03-13T01:24:17;98185.16;;;7.91;100.00
57290;BME280;43523;53.022;-1.178;2023-03-13T01:25:19;98176.47;;;8.04;100.00
57290;BME280;43523;53.022;-1.178;2023-03-13T01:26:23;98187.81;;;8.23;100.00
57290;BME280;43523;53.022;-1.178;2023-03-13T01:27:26;98187.71;;;8.50;100.00
57290;BME280;43523;53.022;-1.178;2023-03-13T01:28:28;98177.83;;;7.87;100.00
57290;BME280;43523;53.022;-1.178;2023-03-13T01:29:31;98178.41;;;7.86;100.00
57290;BME280;43523;53.022;-1.178;2023-03-13T01:30:33;98188.11;;;7.90;100.00
57290;BME280;43523;53.022;-1.178;2023-03-13T01:31:35;98187.79;;;7.83;100.00
57290;BME280;43523;53.022;-1.178;2023-03-13T01:32:38;98183.97;;;7.74;100.00
57290;BME280;43523;53.022;-1.178;2023-03-13T01:33:41;98204.26;;;8.07;100.00
57290;BME280;43523;53.022;-1.178;2023-03-13T01:34:43;98167.94;;;7.83;100.00
57290;BME280;43523;53.022;-1.178;2023-03-13T01:35:45;98155.30;;;7.73;100.00
57290;BME280;43523;53.022;-1.178;2023-03-13T01:36:47;98144.95;;;7.91;100.00
57290;BME280;43523;53.022;-1.178;2023-03-13T01:37:50;98138.95;;;7.92;100.00
57290;BME280;43523;53.022;-1.178;2023-03-13T01:38:55;98130.01;;;8.01;100.00
57290;BME280;43523;53.022;-1.178;2023-03-13T01:39:57;98123.35;;;7.71;100.00
57290;BME280;43523;53.022;-1.178;2023-03-13T01:41:00;98104.89;;;7.85;100.00
57290;BME280;43523;53.022;-1.178;2023-03-13T01:42:03;98087.51;;;8.08;100.00
57290;BME280;43523;53.022;-1.178;2023-03-13T01:43:17;98091.48;;;7.79;100.00
57290;BME280;43523;53.022;-1.178;2023-03-13T01:44:25;98082.65;;;7.96;100.00
57290;BME280;43523;53.022;-1.178;2023-03-13T01:46:03;98071.46;;;7.91;100.00
57290;BME280;43523;53.022;-1.178;2023-03-13T01:47:06;98072.96;;;7.70;100.00
57290;BME280;43523;53.022;-1.178;2023-03-13T01:48:09;98063.85;;;7.87;100.00
57290;BME280;43523;53.022;-1.178;2023-03-13T01:49:14;98064.86;;;8.02;100.00
57290;BME280;43523;53.022;-1.178;2023-03-13T01:50:18;98062.31;;;8.02;100.00
57290;BME280;43523;53.022;-1.178;2023-03-13T01:51:23;98056.18;;;8.01;100.00
57290;BME280;43523;53.022;-1.178;2023-03-13T01:52:28;98069.24;;;8.11;100.00
57290;BME280;43523;53.022;-1.178;2023-03-13T01:53:32;98071.59;;;7.77;100.00
57290;BME280;43523;53.022;-1.178;2023-03-13T01:54:38;98071.18;;;7.82;100.00
57290;BME280;43523;53.022;-1.178;2023-03-13T01:55:44;98057.58;;;7.60;100.00
57290;BME280;43523;53.022;-1.178;2023-03-13T01:56:51;98070.39;;;7.82;100.00
57290;BME280;43523;53.022;-1.178;2023-03-13T01:57:55;98058.65;;;7.95;100.00
57290;BME280;43523;53.022;-1.178;2023-03-13T01:58:58;98048.96;;;7.98;100.00
57290;BME280;43523;53.022;-1.178;2023-03-13T02:00:06;98040.21;;;7.82;100.00
57290;BME280;43523;53.022;-1.178;2023-03-13T02:01:10;98032.11;;;7.90;100.00
57290;BME280;43523;53.022;-1.178;2023-03-13T02:02:13;98031.87;;;8.00;100.00
57290;BME280;43523;53.022;-1.178;2023-03-13T02:03:19;98033.89;;;8.01;100.00
57290;BME280;43523;53.022;-1.178;2023-03-13T02:04:22;98034.21;;;8.02;100.00
57290;BME280;43523;53.022;-1.178;2023-03-13T02:05:27;98040.64;;;7.94;100.00
57290;BME280;43523;53.022;-1.178;2023-03-13T02:06:32;98039.08;;;8.10;100.00
57290;BME280;43523;53.022;-1.178;2023-03-13T02:07:39;98042.92;;;7.67;100.00
57290;BME280;43523;53.022;-1.178;2023-03-13T02:08:46;98041.57;;;7.89;100.00
57290;BME280;43523;53.022;-1.178;2023-03-13T02:09:52;98047.11;;;7.80;100.00
57290;BME280;43523;53.022;-1.178;2023-03-13T02:11:00;98038.00;;;8.13;100.00
57290;BME280;43523;53.022;-1.178;2023-03-13T02:12:08;98041.56;;;7.36;100.00
57290;BME280;43523;53.022;-1.178;2023-03-13T02:13:13;98041.14;;;7.96;100.00
57290;BME280;43523;53.022;-1.178;2023-03-13T02:14:18;98030.48;;;8.08;100.00
57290;BME280;43523;53.022;-1.178;2023-03-13T02:15:23;98046.29;;;7.94;100.00
57290;BME280;43523;53.022;-1.178;2023-03-13T02:16:26;98033.18;;;8.21;100.00
57290;BME280;43523;53.022;-1.178;2023-03-13T02:17:30;98031.11;;;8.27;100.00
57290;BME280;43523;53.022;-1.178;2023-03-13T02:18:36;98033.06;;;7.81;100.00
57290;BME280;43523;53.022;-1.178;2023-03-13T02:19:42;98030.27;;;7.83;100.00
57290;BME280;43523;53.022;-1.178;2023-03-13T02:20:44;98042.26;;;7.74;100.00
57290;BME280;43523;53.022;-1.178;2023-03-13T02:21:52;98027.56;;;8.14;100.00
57290;BME280;43523;53.022;-1.178;2023-03-13T02:23:01;98027.95;;;7.74;100.00
57290;BME280;43523;53.022;-1.178;2023-03-13T02:24:12;98022.18;;;8.10;100.00
57290;BME280;43523;53.022;-1.178;2023-03-13T02:25:28;98019.63;;;8.09;100.00
57290;BME280;43523;53.022;-1.178;2023-03-13T02:26:31;98015.49;;;8.18;100.00
57290;BME280;43523;53.022;-1.178;2023-03-13T02:27:34;98013.61;;;7.72;100.00
57290;BME280;43523;53.022;-1.178;2023-03-13T02:28:38;98000.84;;;8.20;100.00
57290;BME280;43523;53.022;-1.178;2023-03-13T02:29:40;98006.33;;;8.17;100.00
57290;BME280;43523;53.022;-1.178;2023-03-13T02:30:44;97995.73;;;8.65;100.00
57290;BME280;43523;53.022;-1.178;2023-03-13T02:31:47;97986.78;;;8.06;100.00
57290;BME280;43523;53.022;-1.178;2023-03-13T02:32:49;97990.58;;;8.26;100.00
57290;BME280;43523;53.022;-1.178;2023-03-13T02:33:52;97991.29;;;8.27;100.00
57290;BME280;43523;53.022;-1.178;2023-03-13T02:34:58;97986.73;;;7.94;100.00
57290;BME280;43523;53.022;-1.178;2023-03-13T02:36:05;97999.01;;;7.91;100.00
57290;BME280;43523;53.022;-1.178;2023-03-13T02:37:08;97990.59;;;8.26;100.00
57290;BME280;43523;53.022;-1.178;2023-03-13T02:38:15;97992.03;;;8.38;100.00
57290;BME280;43523;53.022;-1.178;2023-03-13T02:39:21;97986.05;;;8.28;100.00
57290;BME280;43523;53.022;-1.178;2023-03-13T02:40:27;97991.90;;;7.91;100.00
57290;BME280;43523;53.022;-1.178;2023-03-13T02:41:30;97979.75;;;8.60;100.00
57290;BME280;43523;53.022;-1.178;2023-03-13T02:42:36;97980.26;;;8.04;100.00
57290;BME280;43523;53.022;-1.178;2023-03-13T02:43:39;97984.72;;;8.15;100.00
57290;BME280;43523;53.022;-1.178;2023-03-13T02:44:41;97980.41;;;8.31;100.00
57290;BME280;43523;53.022;-1.178;2023-03-13T02:46:00;97985.32;;;8.13;100.00
57290;BME280;43523;53.022;-1.178;2023-03-13T02:47:02;97980.54;;;7.94;100.00
57290;BME280;43523;53.022;-1.178;2023-03-13T02:48:05;97971.85;;;8.10;100.00
57290;BME280;43523;53.022;-1.178;2023-03-13T02:49:18;97966.82;;;8.28;100.00
57290;BME280;43523;53.022;-1.178;2023-03-13T02:50:22;97965.37;;;8.36;100.00
57290;BME280;43523;53.022;-1.178;2023-03-13T02:51:28;97952.23;;;7.96;100.00
57290;BME280;43523;53.022;-1.178;2023-03-13T02:52:34;97953.59;;;8.34;100.00
57290;BME280;43523;53.022;-1.178;2023-03-13T02:53:39;97971.49;;;8.36;100.00
57290;BME280;43523;53.022;-1.178;2023-03-13T02:54:46;97960.48;;;8.46;100.00
57290;BME280;43523;53.022;-1.178;2023-03-13T02:55:49;97949.16;;;8.37;100.00
57290;BME280;43523;53.022;-1.178;2023-03-13T02:56:54;97957.64;;;7.90;100.00
57290;BME280;43523;53.022;-1.178;2023-03-13T02:57:58;97958.37;;;8.08;100.00
57290;BME280;43523;53.022;-1.178;2023-03-13T02:59:00;97954.83;;;8.61;100.00
57290;BME280;43523;53.022;-1.178;2023-03-13T03:00:05;97946.36;;;8.26;100.00
57290;BME280;43523;53.022;-1.178;2023-03-13T03:01:08;97946.68;;;8.54;100.00
57290;BME280;43523;53.022;-1.178;2023-03-13T03:02:10;97965.91;;;8.58;100.00
57290;BME280;43523;53.022;-1.178;2023-03-13T03:03:12;97935.66;;;8.61;100.00
57290;BME280;43523;53.022;-1.178;2023-03-13T03:04:15;97942.12;;;8.38;100.00
57290;BME280;43523;53.022;-1.178;2023-03-13T03:05:17;97940.75;;;8.46;100.00
57290;BME280;43523;53.022;-1.178;2023-03-13T03:06:20;97933.84;;;8.27;100.00
57290;BME280;43523;53.022;-1.178;2023-03-13T03:07:22;97938.97;;;8.54;100.00
57290;BME280;43523;53.022;-1.178;2023-03-13T03:08:25;97930.96;;;8.08;100.00
57290;BME280;43523;53.022;-1.178;2023-03-13T03:09:27;97924.24;;;8.43;100.00
57290;BME280;43523;53.022;-1.178;2023-03-13T03:10:29;97910.49;;;7.97;100.00
57290;BME280;43523;53.022;-1.178;2023-03-13T03:11:32;97921.93;;;8.16;100.00
57290;BME280;43523;53.022;-1.178;2023-03-13T03:12:35;97923.15;;;8.24;100.00
57290;BME280;43523;53.022;-1.178;2023-03-13T03:13:38;97926.62;;;8.19;100.00
57290;BME280;43523;53.022;-1.178;2023-03-13T03:14:40;97912.29;;;8.20;100.00
57290;BME280;43523;53.022;-1.178;2023-03-13T03:15:48;97912.62;;;8.47;100.00
57290;BME280;43523;53.022;-1.178;2023-03-13T03:16:50;97902.49;;;8.16;100.00
57290;BME280;43523;53.022;-1.178;2023-03-13T03:17:53;97912.12;;;8.11;100.00
57290;BME280;43523;53.022;-1.178;2023-03-13T03:18:56;97911.51;;;8.18;100.00
57290;BME280;43523;53.022;-1.178;2023-03-13T03:19:58;97909.99;;;8.32;100.00
57290;BME280;43523;53.022;-1.178;2023-03-13T03:21:00;97901.62;;;8.40;100.00
57290;BME280;43523;53.022;-1.178;2023-03-13T03:22:03;97905.85;;;8.10;100.00
57290;BME280;43523;53.022;-1.178;2023-03-13T03:23:05;97908.18;;;8.49;100.00
57290;BME280;43523;53.022;-1.178;2023-03-13T03:24:08;97908.11;;;8.27;100.00
57290;BME280;43523;53.022;-1.178;2023-03-13T03:25:10;97898.43;;;8.35;100.00
57290;BME280;43523;53.022;-1.178;2023-03-13T03:26:13;97891.34;;;8.24;100.00
57290;BME280;43523;53.022;-1.178;2023-03-13T03:27:15;97904.01;;;8.32;100.00
57290;BME280;43523;53.022;-1.178;2023-03-13T03:28:17;97900.60;;;8.59;100.00
57290;BME280;43523;53.022;-1.178;2023-03-13T03:29:20;97873.38;;;8.67;100.00
57290;BME280;43523;53.022;-1.178;2023-03-13T03:30:22;97883.91;;;9.19;100.00
57290;BME280;43523;53.022;-1.178;2023-03-13T03:31:24;97910.64;;;8.58;100.00
57290;BME280;43523;53.022;-1.178;2023-03-13T03:32:27;97882.46;;;8.59;100.00
57290;BME280;43523;53.022;-1.178;2023-03-13T03:33:30;97882.88;;;8.52;100.00
57290;BME280;43523;53.022;-1.178;2023-03-13T03:34:32;97888.96;;;8.49;100.00
57290;BME280;43523;53.022;-1.178;2023-03-13T03:35:34;97878.43;;;8.64;100.00
57290;BME280;43523;53.022;-1.178;2023-03-13T03:36:36;97870.85;;;8.66;100.00
57290;BME280;43523;53.022;-1.178;2023-03-13T03:37:39;97905.01;;;8.18;100.00
57290;BME280;43523;53.022;-1.178;2023-03-13T03:38:42;97872.52;;;8.22;100.00
57290;BME280;43523;53.022;-1.178;2023-03-13T03:39:44;97875.19;;;8.12;100.00
57290;BME280;43523;53.022;-1.178;2023-03-13T03:40:47;97870.88;;;8.09;100.00
57290;BME280;43523;53.022;-1.178;2023-03-13T03:41:49;97881.90;;;8.23;100.00
57290;BME280;43523;53.022;-1.178;2023-03-13T03:42:52;97878.85;;;8.53;100.00
57290;BME280;43523;53.022;-1.178;2023-03-13T03:43:54;97878.37;;;8.46;100.00
57290;BME280;43523;53.022;-1.178;2023-03-13T03:44:56;97873.21;;;8.54;100.00
57290;BME280;43523;53.022;-1.178;2023-03-13T03:45:59;97880.00;;;8.32;100.00
57290;BME280;43523;53.022;-1.178;2023-03-13T03:47:02;97875.91;;;8.26;100.00
57290;BME280;43523;53.022;-1.178;2023-03-13T03:48:04;97882.80;;;8.60;100.00
57290;BME280;43523;53.022;-1.178;2023-03-13T03:49:07;97875.18;;;8.55;100.00
57290;BME280;43523;53.022;-1.178;2023-03-13T03:50:10;97891.30;;;8.60;100.00
57290;BME280;43523;53.022;-1.178;2023-03-13T03:51:13;97875.67;;;8.60;100.00
57290;BME280;43523;53.022;-1.178;2023-03-13T03:52:15;97876.42;;;8.16;100.00
57290;BME280;43523;53.022;-1.178;2023-03-13T03:53:17;97882.15;;;8.11;100.00
57290;BME280;43523;53.022;-1.178;2023-03-13T03:54:20;97870.14;;;8.41;100.00
57290;BME280;43523;53.022;-1.178;2023-03-13T03:55:22;97881.06;;;9.07;100.00
57290;BME280;43523;53.022;-1.178;2023-03-13T03:56:25;97865.47;;;8.68;100.00
57290;BME280;43523;53.022;-1.178;2023-03-13T03:57:33;97873.44;;;8.68;100.00
57290;BME280;43523;53.022;-1.178;2023-03-13T03:58:35;97857.81;;;8.75;100.00
57290;BME280;43523;53.022;-1.178;2023-03-13T03:59:38;97874.75;;;8.80;100.00
57290;BME280;43523;53.022;-1.178;2023-03-13T04:00:42;97881.54;;;9.07;100.00
57290;BME280;43523;53.022;-1.178;2023-03-13T04:01:44;97858.02;;;8.76;100.00
57290;BME280;43523;53.022;-1.178;2023-03-13T04:02:47;97869.31;;;8.69;100.00
57290;BME280;43523;53.022;-1.178;2023-03-13T04:03:49;97855.15;;;8.69;100.00
57290;BME280;43523;53.022;-1.178;2023-03-13T04:04:52;97860.61;;;9.05;100.00
57290;BME280;43523;53.022;-1.178;2023-03-13T04:05:54;97849.65;;;8.72;100.00
57290;BME280;43523;53.022;-1.178;2023-03-13T04:06:56;97836.95;;;8.82;100.00
57290;BME280;43523;53.022;-1.178;2023-03-13T04:07:59;97841.66;;;8.89;100.00
57290;BME280;43523;53.022;-1.178;2023-03-13T04:09:02;97843.85;;;8.81;100.00
57290;BME280;43523;53.022;-1.178;2023-03-13T04:10:05;97854.44;;;8.36;100.00
57290;BME280;43523;53.022;-1.178;2023-03-13T04:11:07;97850.99;;;8.78;100.00
57290;BME280;43523;53.022;-1.178;2023-03-13T04:12:09;97840.55;;;8.58;100.00
57290;BME280;43523;53.022;-1.178;2023-03-13T04:13:12;97841.45;;;8.50;100.00
57290;BME280;43523;53.022;-1.178;2023-03-13T04:14:14;97827.61;;;8.69;100.00
57290;BME280;43523;53.022;-1.178;2023-03-13T04:15:17;97821.65;;;8.60;100.00
57290;BME280;43523;53.022;-1.178;2023-03-13T04:16:19;97816.05;;;8.25;100.00
57290;BME280;43523;53.022;-1.178;2023-03-13T04:17:21;97823.68;;;8.31;100.00
57290;BME280;43523;53.022;-1.178;2023-03-13T04:18:24;97805.88;;;8.58;100.00
57290;BME280;43523;53.022;-1.178;2023-03-13T04:19:26;97807.46;;;8.39;100.00
57290;BME280;43523;53.022;-1.178;2023-03-13T04:20:28;97808.74;;;8.23;100.00
57290;BME280;43523;53.022;-1.178;2023-03-13T04:21:32;97807.07;;;8.44;100.00
57290;BME280;43523;53.022;-1.178;2023-03-13T04:22:35;97820.85;;;8.44;100.00
57290;BME280;43523;53.022;-1.178;2023-03-13T04:23:43;97807.37;;;8.06;100.00
57290;BME280;43523;53.022;-1.178;2023-03-13T04:24:45;97799.25;;;8.11;100.00
57290;BME280;43523;53.022;-1.178;2023-03-13T04:25:47;97803.33;;;8.43;100.00
57290;BME280;43523;53.022;-1.178;2023-03-13T04:26:50;97819.55;;;8.22;100.00
57290;BME280;43523;53.022;-1.178;2023-03-13T04:27:52;97807.55;;;8.09;100.00
57290;BME280;43523;53.022;-1.178;2023-03-13T04:28:55;97810.55;;;8.53;100.00
57290;BME280;43523;53.022;-1.178;2023-03-13T04:29:57;97819.11;;;8.19;100.00
57290;BME280;43523;53.022;-1.178;2023-03-13T04:30:59;97815.38;;;8.45;100.00
57290;BME280;43523;53.022;-1.178;2023-03-13T04:32:02;97809.65;;;8.34;100.00
57290;BME280;43523;53.022;-1.178;2023-03-13T04:33:04;97808.55;;;8.15;100.00
57290;BME280;43523;53.022;-1.178;2023-03-13T04:34:07;97817.01;;;8.26;100.00
57290;BME280;43523;53.022;-1.178;2023-03-13T04:35:09;97816.06;;;8.35;100.00
57290;BME280;43523;53.022;-1.178;2023-03-13T04:36:11;97805.48;;;8.33;100.00
57290;BME280;43523;53.022;-1.178;2023-03-13T04:37:14;97801.09;;;8.30;100.00
57290;BME280;43523;53.022;-1.178;2023-03-13T04:38:17;97794.20;;;8.59;100.00
57290;BME280;43523;53.022;-1.178;2023-03-13T04:39:19;97811.34;;;8.49;100.00
57290;BME280;43523;53.022;-1.178;2023-03-13T04:40:21;97788.39;;;8.50;100.00
57290;BME280;43523;53.022;-1.178;2023-03-13T04:41:23;97783.47;;;8.06;100.00
57290;BME280;43523;53.022;-1.178;2023-03-13T04:42:26;97778.08;;;8.15;100.00
57290;BME280;43523;53.022;-1.178;2023-03-13T04:43:28;97783.25;;;7.92;100.00
57290;BME280;43523;53.022;-1.178;2023-03-13T04:44:31;97773.93;;;8.45;100.00
57290;BME280;43523;53.022;-1.178;2023-03-13T04:45:33;97779.23;;;8.37;100.00
57290;BME280;43523;53.022;-1.178;2023-03-13T04:46:35;97768.78;;;7.99;100.00
57290;BME280;43523;53.022;-1.178;2023-03-13T04:47:39;97781.93;;;9.15;100.00
57290;BME280;43523;53.022;-1.178;2023-03-13T04:48:41;97777.34;;;8.50;100.00
57290;BME280;43523;53.022;-1.178;2023-03-13T04:49:44;97784.10;;;8.22;100.00
57290;BME280;43523;53.022;-1.178;2023-03-13T04:50:47;97770.33;;;8.42;100.00
57290;BME280;43523;53.022;-1.178;2023-03-13T04:51:49;97772.91;;;8.35;100.00
57290;BME280;43523;53.022;-1.178;2023-03-13T04:52:52;97775.04;;;8.12;100.00
57290;BME280;43523;53.022;-1.178;2023-03-13T04:53:54;97772.97;;;8.28;100.00
57290;BME280;43523;53.022;-1.178;2023-03-13T04:54:57;97771.45;;;8.27;100.00
57290;BME280;43523;53.022;-1.178;2023-03-13T04:55:59;97783.08;;;8.40;100.00
57290;BME280;43523;53.022;-1.178;2023-03-13T04:57:02;97763.37;;;8.18;100.00
57290;BME280;43523;53.022;-1.178;2023-03-13T04:58:04;97759.00;;;8.10;100.00
57290;BME280;43523;53.022;-1.178;2023-03-13T04:59:06;97753.05;;;8.49;100.00
57290;BME280;43523;53.022;-1.178;2023-03-13T05:00:10;97757.39;;;8.50;100.00
57290;BME280;43523;53.022;-1.178;2023-03-13T05:01:12;97753.85;;;8.15;100.00
57290;BME280;43523;53.022;-1.178;2023-03-13T05:02:14;97757.52;;;8.58;100.00
57290;BME280;43523;53.022;-1.178;2023-03-13T05:03:17;97767.85;;;8.36;100.00
57290;BME280;43523;53.022;-1.178;2023-03-13T05:04:19;97739.09;;;8.40;100.00
57290;BME280;43523;53.022;-1.178;2023-03-13T05:05:21;97731.25;;;8.42;100.00
57290;BME280;43523;53.022;-1.178;2023-03-13T05:06:24;97734.65;;;8.49;100.00
57290;BME280;43523;53.022;-1.178;2023-03-13T05:07:26;97734.71;;;8.35;100.00
57290;BME280;43523;53.022;-1.178;2023-03-13T05:08:29;97748.33;;;8.92;100.00
57290;BME280;43523;53.022;-1.178;2023-03-13T05:09:31;97741.98;;;8.70;100.00
57290;BME280;43523;53.022;-1.178;2023-03-13T05:10:33;97737.24;;;8.59;100.00
57290;BME280;43523;53.022;-1.178;2023-03-13T05:11:36;97745.82;;;8.43;100.00
57290;BME280;43523;53.022;-1.178;2023-03-13T05:12:39;97741.98;;;8.39;100.00
57290;BME280;43523;53.022;-1.178;2023-03-13T05:13:41;97754.20;;;8.54;100.00
57290;BME280;43523;53.022;-1.178;2023-03-13T05:14:44;97723.60;;;8.55;100.00
57290;BME280;43523;53.022;-1.178;2023-03-13T05:15:46;97716.22;;;8.44;100.00
57290;BME280;43523;53.022;-1.178;2023-03-13T05:16:48;97736.44;;;8.27;100.00
57290;BME280;43523;53.022;-1.178;2023-03-13T05:17:51;97727.02;;;8.53;100.00
57290;BME280;43523;53.022;-1.178;2023-03-13T05:18:53;97732.15;;;8.57;100.00
57290;BME280;43523;53.022;-1.178;2023-03-13T05:19:56;97712.99;;;8.56;100.00
57290;BME280;43523;53.022;-1.178;2023-03-13T05:20:58;97723.71;;;8.26;100.00
57290;BME280;43523;53.022;-1.178;2023-03-13T05:22:01;97738.16;;;8.35;100.00
57290;BME280;43523;53.022;-1.178;2023-03-13T05:23:03;97706.43;;;8.39;100.00
57290;BME280;43523;53.022;-1.178;2023-03-13T05:24:06;97722.31;;;8.47;100.00
57290;BME280;43523;53.022;-1.178;2023-03-13T05:25:08;97733.11;;;8.97;100.00
57290;BME280;43523;53.022;-1.178;2023-03-13T05:26:10;97722.97;;;8.56;100.00
57290;BME280;43523;53.022;-1.178;2023-03-13T05:27:13;97724.64;;;8.87;100.00
57290;BME280;43523;53.022;-1.178;2023-03-13T05:28:15;97709.59;;;8.93;100.00
57290;BME280;43523;53.022;-1.178;2023-03-13T05:29:17;97711.58;;;8.94;100.00
57290;BME280;43523;53.022;-1.178;2023-03-13T05:30:20;97717.22;;;8.82;100.00
57290;BME280;43523;53.022;-1.178;2023-03-13T05:31:22;97708.46;;;8.31;100.00